Volker — YT-2540 — position and weather

sailwx.info

Track history (hours):
 
Tides and Currents Weather Stations Pressure Air Temp Water Temp Dewpoint Dewpoint Depression Visibility Wind Speed Wind Dir Waves Ship Positions

Volker

Last reported at 2018-Feb-15 19:26 UTC. Time now 2018-Feb-20 15:55 UTC.
Position N 44°31' E 022°12'.

Length 85 m; draft 2 m.

Type: Tanker. MMSI: 279202540.

Date/timePositionNaut miles runAvg speedWind from/ knotsBaromVisibWave heightAir tempDewpointWater temp
2018-Feb-15 19:26N 44°31' E 022°12'3 6.5
2018-Feb-15 19:01N 44°28' E 022°10'3 6.6
2018-Feb-15 18:31N 44°30' E 022°06'3 6.9
2018-Feb-15 18:00N 44°32' E 022°03'3 6.8
2018-Feb-15 17:30N 44°36' E 022°01'14 7.1
2018-Feb-15 15:30N 44°40' E 021°42'3 6.9
2018-Feb-15 15:01N 44°42' E 021°39'3 6.9
2018-Feb-15 14:31N 44°45' E 021°36'3 6.2
2018-Feb-15 13:59N 44°46' E 021°32'1 0.5
2018-Feb-15 12:36N 44°46' E 021°31'0 0.0
2018-Feb-15 12:30N 44°46' E 021°31'0 0.0
2018-Feb-15 12:00N 44°46' E 021°31'0 0.0
2018-Feb-15 10:11N 44°46' E 021°31'1 2.1
2018-Feb-15 09:53N 44°46' E 021°32'2 6.1
2018-Feb-15 09:29N 44°46' E 021°28'4 7.0
2018-Feb-15 08:56N 44°48' E 021°23'21 5.5
2018-Feb-15 05:10N 44°41' E 020°56'2 0.3
2018-Feb-14 23:20N 44°40' E 020°54'0 0.0
2018-Feb-14 22:56N 44°40' E 020°54'0 0.0
2018-Feb-14 22:29N 44°40' E 020°54'0 0.0
2018-Feb-14 21:53N 44°40' E 020°54'0 0.0
2018-Feb-14 21:29N 44°40' E 020°54'0 0.0
2018-Feb-14 20:59N 44°40' E 020°54'0 0.0
2018-Feb-14 20:29N 44°40' E 020°54'0 0.0
2018-Feb-14 19:59N 44°40' E 020°54'0 0.0
2018-Feb-14 19:29N 44°40' E 020°54'0 0.0
2018-Feb-14 18:59N 44°40' E 020°54'0 0.0
2018-Feb-14 18:29N 44°40' E 020°54'0 0.0
2018-Feb-14 17:59N 44°40' E 020°54'0 0.0
2018-Feb-14 17:29N 44°40' E 020°54'0 0.0
2018-Feb-14 16:59N 44°40' E 020°54'0 0.0
2018-Feb-14 16:29N 44°40' E 020°54'0 0.0
2018-Feb-14 15:59N 44°40' E 020°54'0 0.0
2018-Feb-14 15:29N 44°40' E 020°54'0 0.0
2018-Feb-14 14:59N 44°40' E 020°54'0 0.0
2018-Feb-14 14:26N 44°40' E 020°54'0 0.0
2018-Feb-14 13:59N 44°40' E 020°54'0 0.0
2018-Feb-14 13:29N 44°40' E 020°54'0 0.0
2018-Feb-14 12:59N 44°40' E 020°54'0 0.0
2018-Feb-14 01:17N 44°40' E 020°54'0 0.0
2018-Feb-14 00:59N 44°40' E 020°54'0 0.0
2018-Feb-14 00:29N 44°40' E 020°54'0 0.0
2018-Feb-13 23:59N 44°40' E 020°54'0 0.0
2018-Feb-13 23:29N 44°40' E 020°54'0 0.0
2018-Feb-13 22:59N 44°40' E 020°54'0 0.0
2018-Feb-13 22:26N 44°40' E 020°54'0 0.0
2018-Feb-13 21:59N 44°40' E 020°54'0 0.0
2018-Feb-13 21:29N 44°40' E 020°54'0 0.0
2018-Feb-13 20:59N 44°40' E 020°54'0 0.0
2018-Feb-13 20:29N 44°40' E 020°54'0 0.0
2018-Feb-13 19:59N 44°40' E 020°54'0 0.0
2018-Feb-13 19:29N 44°40' E 020°54'0 0.0
2018-Feb-13 18:56N 44°40' E 020°54'0 0.0
2018-Feb-13 18:29N 44°40' E 020°54'0 0.0
2018-Feb-13 17:59N 44°40' E 020°54'0 0.0
2018-Feb-13 17:26N 44°40' E 020°54'0 0.0
2018-Feb-13 16:59N 44°40' E 020°54'0 0.0
2018-Feb-13 16:26N 44°40' E 020°54'0 0.0
2018-Feb-13 15:59N 44°40' E 020°54'0 0.0
2018-Feb-13 15:29N 44°40' E 020°54'0 0.0
2018-Feb-13 14:59N 44°40' E 020°54'0 0.0
2018-Feb-13 14:29N 44°40' E 020°54'0 0.0
2018-Feb-13 13:59N 44°40' E 020°54'0 0.0
2018-Feb-13 13:29N 44°40' E 020°54'0 0.0
2018-Feb-13 12:59N 44°40' E 020°54'0 0.0
2018-Feb-13 12:29N 44°40' E 020°54'0 0.0
2018-Feb-13 11:56N 44°40' E 020°54'0 0.0
2018-Feb-13 00:32N 44°40' E 020°54'0 0.0
2018-Feb-13 00:29N 44°40' E 020°54'0 0.0
2018-Feb-12 23:59N 44°40' E 020°54'0 0.0
2018-Feb-12 23:26N 44°40' E 020°54'0 0.0
2018-Feb-12 22:38N 44°40' E 020°54'0 0.0
2018-Feb-12 22:29N 44°40' E 020°54'0 0.0
2018-Feb-12 21:59N 44°40' E 020°54'0 0.0
2018-Feb-12 21:29N 44°40' E 020°54'0 0.0
2018-Feb-12 20:59N 44°40' E 020°54'0 0.0
2018-Feb-12 20:29N 44°40' E 020°54'0 0.0
2018-Feb-12 19:59N 44°40' E 020°54'0 0.0
2018-Feb-12 19:29N 44°40' E 020°54'0 0.0
2018-Feb-12 18:59N 44°40' E 020°54'0 0.0
2018-Feb-12 18:29N 44°40' E 020°54'0 0.0
2018-Feb-12 17:59N 44°40' E 020°54'0 0.0
2018-Feb-12 17:29N 44°40' E 020°54'0 0.0
2018-Feb-12 16:59N 44°40' E 020°54'0 0.0
2018-Feb-12 16:29N 44°40' E 020°54'0 0.0
2018-Feb-12 15:56N 44°40' E 020°54'0 0.0
2018-Feb-12 15:17N 44°40' E 020°54'0 0.0
2018-Feb-12 14:56N 44°40' E 020°54'0 0.0
2018-Feb-12 14:29N 44°40' E 020°54'0 0.0
2018-Feb-12 13:59N 44°40' E 020°54'0 0.0
2018-Feb-12 13:26N 44°40' E 020°54'0 0.0
2018-Feb-12 12:59N 44°40' E 020°54'0 0.0
2018-Feb-12 12:29N 44°40' E 020°54'0 0.0
2018-Feb-12 11:59N 44°40' E 020°54'0 0.0
2018-Feb-12 11:29N 44°40' E 020°54'0 0.0
2018-Feb-12 10:59N 44°40' E 020°54'0 0.0
2018-Feb-12 10:29N 44°40' E 020°54'0 0.0
2018-Feb-12 01:08N 44°40' E 020°54'0 0.0
2018-Feb-12 00:56N 44°40' E 020°54'0 0.0
2018-Feb-12 00:29N 44°40' E 020°54'0 0.0
2018-Feb-11 23:59N 44°40' E 020°54'0 0.0
2018-Feb-11 23:29N 44°40' E 020°54'0 0.0
2018-Feb-11 22:59N 44°40' E 020°54'0 0.0
2018-Feb-11 22:29N 44°40' E 020°54'0 0.0
2018-Feb-11 21:59N 44°40' E 020°54'0 0.0
2018-Feb-11 21:29N 44°40' E 020°54'0 0.0
2018-Feb-11 20:59N 44°40' E 020°54'0 0.0
2018-Feb-11 20:29N 44°40' E 020°54'0 0.0
2018-Feb-11 19:59N 44°40' E 020°54'0 0.0
2018-Feb-11 19:26N 44°40' E 020°54'0 0.0
2018-Feb-11 18:56N 44°40' E 020°54'0 0.0
2018-Feb-11 18:29N 44°40' E 020°54'0 0.0
2018-Feb-11 17:53N 44°40' E 020°54'0 0.0
2018-Feb-11 17:29N 44°40' E 020°54'0 0.0
2018-Feb-11 16:59N 44°40' E 020°54'0 0.0
2018-Feb-11 16:29N 44°40' E 020°54'0 0.0
2018-Feb-11 15:59N 44°40' E 020°54'0 0.0
2018-Feb-11 15:29N 44°40' E 020°54'0 0.0
2018-Feb-11 14:59N 44°40' E 020°54'0 0.0
2018-Feb-11 00:02N 44°40' E 020°54'0 0.0
2018-Feb-10 23:59N 44°40' E 020°54'0 0.0
2018-Feb-10 23:29N 44°40' E 020°54'0 0.0
2018-Feb-10 22:56N 44°40' E 020°54'0 0.0
2018-Feb-10 22:29N 44°40' E 020°54'0 0.0
2018-Feb-10 21:56N 44°40' E 020°54'0 0.0
2018-Feb-10 21:29N 44°40' E 020°54'0 0.0
2018-Feb-10 20:59N 44°40' E 020°54'0 0.0
2018-Feb-10 20:29N 44°40' E 020°54'0 0.0
2018-Feb-10 19:59N 44°40' E 020°54'0 0.0
2018-Feb-10 19:29N 44°40' E 020°54'0 0.0
2018-Feb-10 18:56N 44°40' E 020°54'0 0.0
2018-Feb-10 18:29N 44°40' E 020°54'0 0.0
2018-Feb-10 17:59N 44°40' E 020°54'0 0.0
2018-Feb-10 17:26N 44°40' E 020°54'0 0.0
2018-Feb-10 16:59N 44°40' E 020°54'0 0.0
2018-Feb-10 16:29N 44°40' E 020°54'0 0.0
2018-Feb-10 15:59N 44°40' E 020°54'0 0.0
2018-Feb-10 15:29N 44°40' E 020°54'0 0.0
2018-Feb-10 14:50N 44°40' E 020°54'0 0.0
2018-Feb-10 14:29N 44°40' E 020°54'0 0.0
2018-Feb-10 13:53N 44°40' E 020°54'0 0.0
2018-Feb-10 13:29N 44°40' E 020°54'0 0.0
2018-Feb-10 12:56N 44°40' E 020°54'0 0.0
2018-Feb-10 12:29N 44°40' E 020°54'3 0.8
2018-Feb-10 08:47N 44°42' E 020°57'2 3.8
2018-Feb-10 08:11N 44°43' E 020°60'1 4.0
2018-Feb-10 08:00N 44°43' E 021°01'4 3.9
2018-Feb-10 07:02N 44°44' E 021°06'20 2.4
2018-Feb-09 22:31N 44°46' E 021°35'0 3.4
2018-Feb-09 22:30N 44°46' E 021°35'2 3.7
2018-Feb-09 22:01N 44°44' E 021°36'2 3.9
2018-Feb-09 21:31N 44°43' E 021°38'2 3.8
2018-Feb-09 21:01N 44°41' E 021°39'2 4.1
2018-Feb-09 20:31N 44°40' E 021°42'15 3.4
2018-Feb-09 16:01N 44°34' E 022°02'4 4.3
2018-Feb-09 15:01N 44°30' E 022°05'2 4.5
2018-Feb-09 14:31N 44°29' E 022°07'2 4.6
2018-Feb-09 14:01N 44°28' E 022°10'  
Track history (hours):
 
Tides and Currents Weather Stations Pressure Air Temp Water Temp Dewpoint Dewpoint Depression Visibility Wind Speed Wind Dir Waves Ship Positions

Volker

Last reported at 2018-Feb-15 19:26 UTC. Time now 2018-Feb-20 15:55 UTC.
Position N 44°31' E 022°12'.

Length 85 m; draft 2 m.

Type: Tanker. MMSI: 279202540.

Date/timePositionNaut miles runAvg speedWind from/ knotsBaromVisibWave heightAir tempDewpointWater temp
2018-Feb-15 19:26N 44°31' E 022°12'3 6.5
2018-Feb-15 19:01N 44°28' E 022°10'3 6.6
2018-Feb-15 18:31N 44°30' E 022°06'3 6.9
2018-Feb-15 18:00N 44°32' E 022°03'3 6.8
2018-Feb-15 17:30N 44°36' E 022°01'14 7.1
2018-Feb-15 15:30N 44°40' E 021°42'3 6.9
2018-Feb-15 15:01N 44°42' E 021°39'3 6.9
2018-Feb-15 14:31N 44°45' E 021°36'3 6.2
2018-Feb-15 13:59N 44°46' E 021°32'1 0.5
2018-Feb-15 12:36N 44°46' E 021°31'0 0.0
2018-Feb-15 12:30N 44°46' E 021°31'0 0.0
2018-Feb-15 12:00N 44°46' E 021°31'0 0.0
2018-Feb-15 10:11N 44°46' E 021°31'1 2.1
2018-Feb-15 09:53N 44°46' E 021°32'2 6.1
2018-Feb-15 09:29N 44°46' E 021°28'4 7.0
2018-Feb-15 08:56N 44°48' E 021°23'21 5.5
2018-Feb-15 05:10N 44°41' E 020°56'2 0.3
2018-Feb-14 23:20N 44°40' E 020°54'0 0.0
2018-Feb-14 22:56N 44°40' E 020°54'0 0.0
2018-Feb-14 22:29N 44°40' E 020°54'0 0.0
2018-Feb-14 21:53N 44°40' E 020°54'0 0.0
2018-Feb-14 21:29N 44°40' E 020°54'0 0.0
2018-Feb-14 20:59N 44°40' E 020°54'0 0.0
2018-Feb-14 20:29N 44°40' E 020°54'0 0.0
2018-Feb-14 19:59N 44°40' E 020°54'0 0.0
2018-Feb-14 19:29N 44°40' E 020°54'0 0.0
2018-Feb-14 18:59N 44°40' E 020°54'0 0.0
2018-Feb-14 18:29N 44°40' E 020°54'0 0.0
2018-Feb-14 17:59N 44°40' E 020°54'0 0.0
2018-Feb-14 17:29N 44°40' E 020°54'0 0.0
2018-Feb-14 16:59N 44°40' E 020°54'0 0.0
2018-Feb-14 16:29N 44°40' E 020°54'0 0.0
2018-Feb-14 15:59N 44°40' E 020°54'0 0.0
2018-Feb-14 15:29N 44°40' E 020°54'0 0.0
2018-Feb-14 14:59N 44°40' E 020°54'0 0.0
2018-Feb-14 14:26N 44°40' E 020°54'0 0.0
2018-Feb-14 13:59N 44°40' E 020°54'0 0.0
2018-Feb-14 13:29N 44°40' E 020°54'0 0.0
2018-Feb-14 12:59N 44°40' E 020°54'0 0.0
2018-Feb-14 01:17N 44°40' E 020°54'0 0.0
2018-Feb-14 00:59N 44°40' E 020°54'0 0.0
2018-Feb-14 00:29N 44°40' E 020°54'0 0.0
2018-Feb-13 23:59N 44°40' E 020°54'0 0.0
2018-Feb-13 23:29N 44°40' E 020°54'0 0.0
2018-Feb-13 22:59N 44°40' E 020°54'0 0.0
2018-Feb-13 22:26N 44°40' E 020°54'0 0.0
2018-Feb-13 21:59N 44°40' E 020°54'0 0.0
2018-Feb-13 21:29N 44°40' E 020°54'0 0.0
2018-Feb-13 20:59N 44°40' E 020°54'0 0.0
2018-Feb-13 20:29N 44°40' E 020°54'0 0.0
2018-Feb-13 19:59N 44°40' E 020°54'0 0.0
2018-Feb-13 19:29N 44°40' E 020°54'0 0.0
2018-Feb-13 18:56N 44°40' E 020°54'0 0.0
2018-Feb-13 18:29N 44°40' E 020°54'0 0.0
2018-Feb-13 17:59N 44°40' E 020°54'0 0.0
2018-Feb-13 17:26N 44°40' E 020°54'0 0.0
2018-Feb-13 16:59N 44°40' E 020°54'0 0.0
2018-Feb-13 16:26N 44°40' E 020°54'0 0.0
2018-Feb-13 15:59N 44°40' E 020°54'0 0.0
2018-Feb-13 15:29N 44°40' E 020°54'0 0.0
2018-Feb-13 14:59N 44°40' E 020°54'0 0.0
2018-Feb-13 14:29N 44°40' E 020°54'0 0.0
2018-Feb-13 13:59N 44°40' E 020°54'0 0.0
2018-Feb-13 13:29N 44°40' E 020°54'0 0.0
2018-Feb-13 12:59N 44°40' E 020°54'0 0.0
2018-Feb-13 12:29N 44°40' E 020°54'0 0.0
2018-Feb-13 11:56N 44°40' E 020°54'0 0.0
2018-Feb-13 00:32N 44°40' E 020°54'0 0.0
2018-Feb-13 00:29N 44°40' E 020°54'0 0.0
2018-Feb-12 23:59N 44°40' E 020°54'0 0.0
2018-Feb-12 23:26N 44°40' E 020°54'0 0.0
2018-Feb-12 22:38N 44°40' E 020°54'0 0.0
2018-Feb-12 22:29N 44°40' E 020°54'0 0.0
2018-Feb-12 21:59N 44°40' E 020°54'0 0.0
2018-Feb-12 21:29N 44°40' E 020°54'0 0.0
2018-Feb-12 20:59N 44°40' E 020°54'0 0.0
2018-Feb-12 20:29N 44°40' E 020°54'0 0.0
2018-Feb-12 19:59N 44°40' E 020°54'0 0.0
2018-Feb-12 19:29N 44°40' E 020°54'0 0.0
2018-Feb-12 18:59N 44°40' E 020°54'0 0.0
2018-Feb-12 18:29N 44°40' E 020°54'0 0.0
2018-Feb-12 17:59N 44°40' E 020°54'0 0.0
2018-Feb-12 17:29N 44°40' E 020°54'0 0.0
2018-Feb-12 16:59N 44°40' E 020°54'0 0.0
2018-Feb-12 16:29N 44°40' E 020°54'0 0.0
2018-Feb-12 15:56N 44°40' E 020°54'0 0.0
2018-Feb-12 15:17N 44°40' E 020°54'0 0.0
2018-Feb-12 14:56N 44°40' E 020°54'0 0.0
2018-Feb-12 14:29N 44°40' E 020°54'0 0.0
2018-Feb-12 13:59N 44°40' E 020°54'0 0.0
2018-Feb-12 13:26N 44°40' E 020°54'0 0.0
2018-Feb-12 12:59N 44°40' E 020°54'0 0.0
2018-Feb-12 12:29N 44°40' E 020°54'0 0.0
2018-Feb-12 11:59N 44°40' E 020°54'0 0.0
2018-Feb-12 11:29N 44°40' E 020°54'0 0.0
2018-Feb-12 10:59N 44°40' E 020°54'0 0.0
2018-Feb-12 10:29N 44°40' E 020°54'0 0.0
2018-Feb-12 01:08N 44°40' E 020°54'0 0.0
2018-Feb-12 00:56N 44°40' E 020°54'0 0.0
2018-Feb-12 00:29N 44°40' E 020°54'0 0.0
2018-Feb-11 23:59N 44°40' E 020°54'0 0.0
2018-Feb-11 23:29N 44°40' E 020°54'0 0.0
2018-Feb-11 22:59N 44°40' E 020°54'0 0.0
2018-Feb-11 22:29N 44°40' E 020°54'0 0.0
2018-Feb-11 21:59N 44°40' E 020°54'0 0.0
2018-Feb-11 21:29N 44°40' E 020°54'0 0.0
2018-Feb-11 20:59N 44°40' E 020°54'0 0.0
2018-Feb-11 20:29N 44°40' E 020°54'0 0.0
2018-Feb-11 19:59N 44°40' E 020°54'0 0.0
2018-Feb-11 19:26N 44°40' E 020°54'0 0.0
2018-Feb-11 18:56N 44°40' E 020°54'0 0.0
2018-Feb-11 18:29N 44°40' E 020°54'0 0.0
2018-Feb-11 17:53N 44°40' E 020°54'0 0.0
2018-Feb-11 17:29N 44°40' E 020°54'0 0.0
2018-Feb-11 16:59N 44°40' E 020°54'0 0.0
2018-Feb-11 16:29N 44°40' E 020°54'0 0.0
2018-Feb-11 15:59N 44°40' E 020°54'0 0.0
2018-Feb-11 15:29N 44°40' E 020°54'0 0.0
2018-Feb-11 14:59N 44°40' E 020°54'0 0.0
2018-Feb-11 00:02N 44°40' E 020°54'0 0.0
2018-Feb-10 23:59N 44°40' E 020°54'0 0.0
2018-Feb-10 23:29N 44°40' E 020°54'0 0.0
2018-Feb-10 22:56N 44°40' E 020°54'0 0.0
2018-Feb-10 22:29N 44°40' E 020°54'0 0.0
2018-Feb-10 21:56N 44°40' E 020°54'0 0.0
2018-Feb-10 21:29N 44°40' E 020°54'0 0.0
2018-Feb-10 20:59N 44°40' E 020°54'0 0.0
2018-Feb-10 20:29N 44°40' E 020°54'0 0.0
2018-Feb-10 19:59N 44°40' E 020°54'0 0.0
2018-Feb-10 19:29N 44°40' E 020°54'0 0.0
2018-Feb-10 18:56N 44°40' E 020°54'0 0.0
2018-Feb-10 18:29N 44°40' E 020°54'0 0.0
2018-Feb-10 17:59N 44°40' E 020°54'0 0.0
2018-Feb-10 17:26N 44°40' E 020°54'0 0.0
2018-Feb-10 16:59N 44°40' E 020°54'0 0.0
2018-Feb-10 16:29N 44°40' E 020°54'0 0.0
2018-Feb-10 15:59N 44°40' E 020°54'0 0.0
2018-Feb-10 15:29N 44°40' E 020°54'0 0.0
2018-Feb-10 14:50N 44°40' E 020°54'0 0.0
2018-Feb-10 14:29N 44°40' E 020°54'0 0.0
2018-Feb-10 13:53N 44°40' E 020°54'0 0.0
2018-Feb-10 13:29N 44°40' E 020°54'0 0.0
2018-Feb-10 12:56N 44°40' E 020°54'0 0.0
2018-Feb-10 12:29N 44°40' E 020°54'3 0.8
2018-Feb-10 08:47N 44°42' E 020°57'2 3.8
2018-Feb-10 08:11N 44°43' E 020°60'1 4.0
2018-Feb-10 08:00N 44°43' E 021°01'4 3.9
2018-Feb-10 07:02N 44°44' E 021°06'20 2.4
2018-Feb-09 22:31N 44°46' E 021°35'0 3.4
2018-Feb-09 22:30N 44°46' E 021°35'2 3.7
2018-Feb-09 22:01N 44°44' E 021°36'2 3.9
2018-Feb-09 21:31N 44°43' E 021°38'2 3.8
2018-Feb-09 21:01N 44°41' E 021°39'2 4.1
2018-Feb-09 20:31N 44°40' E 021°42'15 3.4
2018-Feb-09 16:01N 44°34' E 022°02'4 4.3
2018-Feb-09 15:01N 44°30' E 022°05'2 4.5
2018-Feb-09 14:31N 44°29' E 022°07'2 4.6
2018-Feb-09 14:01N 44°28' E 022°10'  

Dump ship's entire track history